createdAt,value
2018-03-14T00:00:38.396Z,1005.12
2018-03-14T00:01:38.378Z,1005.16
2018-03-14T00:02:38.351Z,1005.15
2018-03-14T00:03:38.339Z,1005.15
2018-03-14T00:04:38.344Z,1005.18
2018-03-14T00:05:38.292Z,1005.17
2018-03-14T00:06:38.276Z,1005.20
2018-03-14T00:07:38.250Z,1005.17
2018-03-14T00:08:38.246Z,1005.19
2018-03-14T00:09:38.215Z,1005.17
2018-03-14T00:10:38.185Z,1005.17
2018-03-14T00:11:38.164Z,1005.17
2018-03-14T00:12:38.145Z,1005.17
2018-03-14T00:13:38.129Z,1005.18
2018-03-14T00:14:38.103Z,1005.18
2018-03-14T00:15:38.083Z,1005.20
2018-03-14T00:16:38.065Z,1005.24
2018-03-14T00:17:38.043Z,1005.17
2018-03-14T00:18:38.021Z,1005.21
2018-03-14T00:19:38.005Z,1005.19
2018-03-14T00:20:37.980Z,1005.23
2018-03-14T00:21:37.957Z,1005.19
2018-03-14T00:22:37.946Z,1005.26
2018-03-14T00:23:37.918Z,1005.23
2018-03-14T00:24:37.898Z,1005.25
2018-03-14T00:25:37.876Z,1005.24
2018-03-14T00:26:37.857Z,1005.24
2018-03-14T00:27:37.836Z,1005.29
2018-03-14T00:28:37.817Z,1005.25
2018-03-14T00:29:37.795Z,1005.28
2018-03-14T00:30:37.775Z,1005.31
2018-03-14T00:31:37.752Z,1005.27
2018-03-14T00:32:37.730Z,1005.28
2018-03-14T00:33:37.713Z,1005.30
2018-03-14T00:34:37.686Z,1005.32
2018-03-14T00:35:37.670Z,1005.33
2018-03-14T00:36:37.646Z,1005.35
2018-03-14T00:37:37.625Z,1005.34
2018-03-14T00:38:37.605Z,1005.36
2018-03-14T00:39:37.583Z,1005.32
2018-03-14T00:40:37.560Z,1005.35
2018-03-14T00:41:37.541Z,1005.35
2018-03-14T00:42:37.519Z,1005.36
2018-03-14T00:43:37.498Z,1005.35
2018-03-14T00:44:37.475Z,1005.32
2018-03-14T00:45:37.454Z,1005.33
2018-03-14T00:46:37.439Z,1005.36
2018-03-14T00:47:37.414Z,1005.33
2018-03-14T00:48:37.396Z,1005.35
2018-03-14T00:49:37.372Z,1005.32
2018-03-14T00:50:37.359Z,1005.32
2018-03-14T00:51:37.332Z,1005.29
2018-03-14T00:52:37.316Z,1005.30
2018-03-14T00:53:37.292Z,1005.26
2018-03-14T00:54:37.269Z,1005.25
2018-03-14T00:55:37.247Z,1005.26
2018-03-14T00:56:37.226Z,1005.30
2018-03-14T00:57:37.208Z,1005.28
2018-03-14T00:58:37.187Z,1005.26
2018-03-14T00:59:37.175Z,1005.29
2018-03-14T01:00:37.145Z,1005.34
2018-03-14T01:01:37.122Z,1005.31
2018-03-14T01:02:37.101Z,1005.37
2018-03-14T01:03:37.079Z,1005.37
2018-03-14T01:04:37.060Z,1005.40
2018-03-14T01:05:37.040Z,1005.39
2018-03-14T01:06:37.028Z,1005.39
2018-03-14T01:07:37.006Z,1005.42
2018-03-14T01:08:36.977Z,1005.44
2018-03-14T01:09:36.958Z,1005.43
2018-03-14T01:10:36.938Z,1005.42
2018-03-14T01:11:36.915Z,1005.42
2018-03-14T01:12:36.901Z,1005.45
2018-03-14T01:13:36.870Z,1005.44
2018-03-14T01:14:36.851Z,1005.46
2018-03-14T01:15:36.834Z,1005.46
2018-03-14T01:16:36.806Z,1005.47
2018-03-14T01:17:36.786Z,1005.47
2018-03-14T01:18:36.776Z,1005.45
2018-03-14T01:19:36.747Z,1005.50
2018-03-14T01:20:36.736Z,1005.51
2018-03-14T01:21:36.703Z,1005.48
2018-03-14T01:22:36.680Z,1005.47
2018-03-14T01:23:36.662Z,1005.51
2018-03-14T01:24:36.640Z,1005.53
2018-03-14T01:25:36.623Z,1005.50
2018-03-14T01:26:36.600Z,1005.51
2018-03-14T01:27:36.578Z,1005.51
2018-03-14T01:28:36.556Z,1005.49
2018-03-14T01:29:36.534Z,1005.50
2018-03-14T01:30:36.517Z,1005.51
2018-03-14T01:31:36.492Z,1005.50
2018-03-14T01:32:36.469Z,1005.53
2018-03-14T01:33:36.450Z,1005.52
2018-03-14T01:34:36.438Z,1005.50
2018-03-14T01:35:36.411Z,1005.50
2018-03-14T01:36:36.386Z,1005.52
2018-03-14T01:37:36.367Z,1005.55
2018-03-14T01:38:36.347Z,1005.55
2018-03-14T01:39:36.332Z,1005.53
2018-03-14T01:40:36.304Z,1005.56
2018-03-14T01:41:36.284Z,1005.57
2018-03-14T01:42:36.264Z,1005.52
2018-03-14T01:43:36.243Z,1005.56
2018-03-14T01:44:36.221Z,1005.54
2018-03-14T01:45:36.203Z,1005.55
2018-03-14T01:46:36.186Z,1005.54
2018-03-14T01:47:36.160Z,1005.51
2018-03-14T01:48:36.133Z,1005.48
2018-03-14T01:49:36.123Z,1005.50
2018-03-14T01:50:36.097Z,1005.49
2018-03-14T01:51:36.075Z,1005.51
2018-03-14T01:52:36.052Z,1005.53
2018-03-14T01:53:36.032Z,1005.52
2018-03-14T01:54:36.020Z,1005.55
2018-03-14T01:55:35.994Z,1005.51
2018-03-14T01:56:35.973Z,1005.56
2018-03-14T01:57:35.946Z,1005.56
2018-03-14T01:58:35.925Z,1005.61
2018-03-14T01:59:35.906Z,1005.59
2018-03-14T02:00:35.885Z,1005.59
2018-03-14T02:01:35.871Z,1005.61
2018-03-14T02:02:35.847Z,1005.61
2018-03-14T02:03:35.822Z,1005.61
2018-03-14T02:04:35.798Z,1005.61
2018-03-14T02:05:35.784Z,1005.60
2018-03-14T02:06:35.755Z,1005.65
2018-03-14T02:07:35.736Z,1005.66
2018-03-14T02:08:35.713Z,1005.64
2018-03-14T02:09:35.695Z,1005.68
2018-03-14T02:10:35.679Z,1005.65
2018-03-14T02:11:35.655Z,1005.69
2018-03-14T02:12:35.634Z,1005.66
2018-03-14T02:13:35.612Z,1005.67
2018-03-14T02:14:35.595Z,1005.69
2018-03-14T02:15:35.570Z,1005.65
2018-03-14T02:16:35.553Z,1005.64
2018-03-14T02:17:35.530Z,1005.67
2018-03-14T02:18:35.509Z,1005.59
2018-03-14T02:19:35.484Z,1005.64
2018-03-14T02:20:35.464Z,1005.62
2018-03-14T02:21:35.443Z,1005.63
2018-03-14T02:22:35.421Z,1005.65
2018-03-14T02:23:35.402Z,1005.64
2018-03-14T02:24:35.378Z,1005.63
2018-03-14T02:25:35.358Z,1005.66
2018-03-14T02:26:35.336Z,1005.66
2018-03-14T02:27:35.316Z,1005.70
2018-03-14T02:28:35.296Z,1005.68
2018-03-14T02:29:35.276Z,1005.67
2018-03-14T02:30:35.254Z,1005.67
2018-03-14T02:31:35.233Z,1005.68
2018-03-14T02:32:35.217Z,1005.71
2018-03-14T02:33:35.190Z,1005.70
2018-03-14T02:34:35.174Z,1005.62
2018-03-14T02:35:35.146Z,1005.67
2018-03-14T02:36:35.129Z,1005.67
2018-03-14T02:37:35.103Z,1005.64
2018-03-14T02:38:35.089Z,1005.71
2018-03-14T02:39:35.062Z,1005.68
2018-03-14T02:40:35.043Z,1005.68
2018-03-14T02:41:35.017Z,1005.68
2018-03-14T02:42:34.998Z,1005.69
2018-03-14T02:43:34.977Z,1005.67
2018-03-14T02:44:34.954Z,1005.68
2018-03-14T02:45:34.934Z,1005.67
2018-03-14T02:46:34.915Z,1005.65
2018-03-14T02:47:34.900Z,1005.66
2018-03-14T02:48:34.870Z,1005.66
2018-03-14T02:49:34.852Z,1005.71
2018-03-14T02:50:34.830Z,1005.66
2018-03-14T02:51:34.808Z,1005.70
2018-03-14T02:52:34.792Z,1005.68
2018-03-14T02:53:34.767Z,1005.68
2018-03-14T02:54:34.747Z,1005.71
2018-03-14T02:55:34.726Z,1005.71
2018-03-14T02:56:34.708Z,1005.73
2018-03-14T02:57:34.683Z,1005.72
2018-03-14T02:58:34.660Z,1005.71
2018-03-14T02:59:34.640Z,1005.73
2018-03-14T03:00:34.621Z,1005.74
2018-03-14T03:01:34.596Z,1005.75
2018-03-14T03:02:34.577Z,1005.72
2018-03-14T03:03:34.555Z,1005.69
2018-03-14T03:04:34.537Z,1005.72
2018-03-14T03:05:34.519Z,1005.72
2018-03-14T03:06:34.501Z,1005.74
2018-03-14T03:07:34.470Z,1005.72
2018-03-14T03:08:34.453Z,1005.73
2018-03-14T03:09:34.427Z,1005.73
2018-03-14T03:10:34.407Z,1005.74
2018-03-14T03:11:34.384Z,1005.72
2018-03-14T03:12:34.365Z,1005.72
2018-03-14T03:13:34.344Z,1005.75
2018-03-14T03:14:34.324Z,1005.77
2018-03-14T03:15:34.303Z,1005.76
2018-03-14T03:16:34.283Z,1005.76
2018-03-14T03:17:34.265Z,1005.73
2018-03-14T03:18:34.243Z,1005.74
2018-03-14T03:19:34.221Z,1005.76
2018-03-14T03:20:34.197Z,1005.80
2018-03-14T03:21:34.178Z,1005.80
2018-03-14T03:22:34.154Z,1005.83
2018-03-14T03:23:34.137Z,1005.84
2018-03-14T03:24:34.115Z,1005.78
2018-03-14T03:25:34.091Z,1005.85
2018-03-14T03:26:34.071Z,1005.85
2018-03-14T03:27:34.049Z,1005.81
2018-03-14T03:28:34.030Z,1005.80
2018-03-14T03:29:34.015Z,1005.83
2018-03-14T03:30:33.987Z,1005.79
2018-03-14T03:31:33.982Z,1005.84
2018-03-14T03:32:33.946Z,1005.84
2018-03-14T03:33:33.924Z,1005.83
2018-03-14T03:34:33.902Z,1005.82
2018-03-14T03:35:33.886Z,1005.83
2018-03-14T03:36:33.859Z,1005.82
2018-03-14T03:37:33.844Z,1005.85
2018-03-14T03:38:33.822Z,1005.87
2018-03-14T03:39:33.798Z,1005.87
2018-03-14T03:40:33.774Z,1005.89
2018-03-14T03:41:33.753Z,1005.88
2018-03-14T03:42:33.736Z,1005.86
2018-03-14T03:43:33.712Z,1005.89
2018-03-14T03:44:33.696Z,1005.89
2018-03-14T03:45:33.672Z,1005.88
2018-03-14T03:46:33.651Z,1005.86
2018-03-14T03:47:33.632Z,1005.83
2018-03-14T03:48:33.617Z,1005.80
2018-03-14T03:49:33.586Z,1005.84
2018-03-14T03:50:33.567Z,1005.82
2018-03-14T03:51:33.551Z,1005.85
2018-03-14T03:52:33.526Z,1005.81
2018-03-14T03:53:33.503Z,1005.81
2018-03-14T03:54:33.482Z,1005.78
2018-03-14T03:55:33.475Z,1005.79
2018-03-14T03:56:33.442Z,1005.84
2018-03-14T03:57:33.420Z,1005.81
2018-03-14T03:58:33.397Z,1005.81
2018-03-14T03:59:33.383Z,1005.80
2018-03-14T04:00:33.356Z,1005.81
2018-03-14T04:01:33.337Z,1005.82
2018-03-14T04:02:33.316Z,1005.85
2018-03-14T04:03:33.293Z,1005.85
2018-03-14T04:04:33.276Z,1005.88
2018-03-14T04:05:33.254Z,1005.90
2018-03-14T04:06:33.242Z,1005.87
2018-03-14T04:07:33.209Z,1005.89
2018-03-14T04:08:33.189Z,1005.88
2018-03-14T04:09:33.173Z,1005.92
2018-03-14T04:10:33.150Z,1005.92
2018-03-14T04:11:33.126Z,1005.94
2018-03-14T04:12:33.105Z,1005.94
2018-03-14T04:13:33.088Z,1005.91
2018-03-14T04:14:33.112Z,1005.95
2018-03-14T04:15:33.049Z,1005.98
2018-03-14T04:16:33.025Z,1005.97
2018-03-14T04:17:33.002Z,1005.98
2018-03-14T04:18:32.980Z,1006.04
2018-03-14T04:19:32.961Z,1005.99
2018-03-14T04:20:32.936Z,1005.99
2018-03-14T04:21:32.965Z,1005.99
2018-03-14T04:22:32.895Z,1006.01
2018-03-14T04:23:32.877Z,1006.01
2018-03-14T04:24:32.858Z,1005.99
2018-03-14T04:25:32.842Z,1006.02
2018-03-14T04:26:32.813Z,1006.03
2018-03-14T04:27:32.790Z,1006.04
2018-03-14T04:28:32.772Z,1006.01
2018-03-14T04:29:32.747Z,1005.99
2018-03-14T04:30:32.731Z,1006.01
2018-03-14T04:31:32.715Z,1005.98
2018-03-14T04:32:32.689Z,1005.98
2018-03-14T04:33:32.664Z,1005.94
2018-03-14T04:34:32.644Z,1005.96
2018-03-14T04:35:32.627Z,1005.95
2018-03-14T04:36:32.605Z,1005.97
2018-03-14T04:37:32.583Z,1005.98
2018-03-14T04:38:32.561Z,1005.98
2018-03-14T04:39:32.541Z,1005.96
2018-03-14T04:40:32.517Z,1005.97
2018-03-14T04:41:32.495Z,1005.95
2018-03-14T04:42:32.476Z,1005.97
2018-03-14T04:43:32.457Z,1006.00
2018-03-14T04:44:32.435Z,1005.99
2018-03-14T04:45:32.414Z,1006.01
2018-03-14T04:46:32.392Z,1006.01
2018-03-14T04:47:32.376Z,1006.00
2018-03-14T04:48:32.356Z,1006.00
2018-03-14T04:49:32.332Z,1005.98
2018-03-14T04:50:32.314Z,1005.96
2018-03-14T04:51:32.292Z,1005.95
2018-03-14T04:52:32.268Z,1005.95
2018-03-14T04:53:32.261Z,1005.95
2018-03-14T04:54:32.226Z,1005.94
2018-03-14T04:55:32.207Z,1005.99
2018-03-14T04:56:32.185Z,1005.93
2018-03-14T04:57:32.165Z,1005.95
2018-03-14T04:58:32.149Z,1005.95
2018-03-14T04:59:32.124Z,1006.00
2018-03-14T05:00:32.102Z,1006.03
2018-03-14T05:01:32.080Z,1006.04
2018-03-14T05:02:32.061Z,1006.02
2018-03-14T05:03:32.042Z,1006.04
2018-03-14T05:04:32.018Z,1006.05
2018-03-14T05:05:31.994Z,1006.04
2018-03-14T05:06:31.976Z,1006.04
2018-03-14T05:07:32.007Z,1006.09
2018-03-14T05:08:31.937Z,1006.06
2018-03-14T05:09:31.914Z,1006.10
2018-03-14T05:10:31.894Z,1006.03
2018-03-14T05:11:31.870Z,1006.03
2018-03-14T05:12:31.847Z,1006.07
2018-03-14T05:13:31.832Z,1006.03
2018-03-14T05:14:31.806Z,1006.04
2018-03-14T05:15:31.788Z,1006.01
2018-03-14T05:16:31.768Z,1006.02
2018-03-14T05:17:31.745Z,1006.04
2018-03-14T05:18:31.731Z,1006.06
2018-03-14T05:19:31.704Z,1006.05
2018-03-14T05:20:31.684Z,1006.06
2018-03-14T05:21:31.659Z,1006.06
2018-03-14T05:22:31.639Z,1006.10
2018-03-14T05:23:31.625Z,1006.07
2018-03-14T05:24:31.597Z,1006.08
2018-03-14T05:25:31.576Z,1006.12
2018-03-14T05:26:31.557Z,1006.07
2018-03-14T05:27:31.538Z,1006.11
2018-03-14T05:28:31.513Z,1006.15
2018-03-14T05:29:31.491Z,1006.12
2018-03-14T05:30:31.471Z,1006.15
2018-03-14T05:31:31.452Z,1006.15
2018-03-14T05:32:31.436Z,1006.15
2018-03-14T05:33:31.410Z,1006.18
2018-03-14T05:34:31.431Z,1006.19
2018-03-14T05:35:31.366Z,1006.17
2018-03-14T05:36:31.346Z,1006.16
2018-03-14T05:37:31.327Z,1006.16
2018-03-14T05:38:31.311Z,1006.16
2018-03-14T05:39:31.285Z,1006.13
2018-03-14T05:40:31.268Z,1006.15
2018-03-14T05:41:31.240Z,1006.14
2018-03-14T05:42:31.228Z,1006.14
2018-03-14T05:43:31.207Z,1006.13
2018-03-14T05:44:31.183Z,1006.14
2018-03-14T05:45:31.158Z,1006.10
2018-03-14T05:46:31.136Z,1006.16
2018-03-14T05:47:31.158Z,1006.17
2018-03-14T05:48:31.103Z,1006.14
2018-03-14T05:49:31.076Z,1006.17
2018-03-14T05:50:31.056Z,1006.19
2018-03-14T05:51:31.035Z,1006.19
2018-03-14T05:52:31.015Z,1006.21
2018-03-14T05:53:30.991Z,1006.24
2018-03-14T05:54:30.971Z,1006.28
2018-03-14T05:55:30.953Z,1006.23
2018-03-14T05:56:30.928Z,1006.26
2018-03-14T05:57:30.907Z,1006.22
2018-03-14T05:58:30.891Z,1006.23
2018-03-14T05:59:30.869Z,1006.24
2018-03-14T06:00:30.854Z,1006.23
2018-03-14T06:01:30.833Z,1006.24
2018-03-14T06:02:30.802Z,1006.25
2018-03-14T06:03:30.785Z,1006.24
2018-03-14T06:04:30.760Z,1006.28
2018-03-14T06:05:30.741Z,1006.25
2018-03-14T06:06:30.720Z,1006.29
2018-03-14T06:07:30.702Z,1006.30
2018-03-14T06:08:30.683Z,1006.32
2018-03-14T06:09:30.667Z,1006.31
2018-03-14T06:10:30.702Z,1006.31
2018-03-14T06:11:30.614Z,1006.32
2018-03-14T06:12:30.597Z,1006.37
2018-03-14T06:13:30.573Z,1006.35
2018-03-14T06:14:30.553Z,1006.39
2018-03-14T06:15:30.537Z,1006.36
2018-03-14T06:16:30.511Z,1006.34
2018-03-14T06:17:30.495Z,1006.40
2018-03-14T06:18:30.468Z,1006.33
2018-03-14T06:19:30.455Z,1006.36
2018-03-14T06:20:30.427Z,1006.31
2018-03-14T06:21:30.407Z,1006.31
2018-03-14T06:22:30.387Z,1006.30
2018-03-14T06:23:30.366Z,1006.29
2018-03-14T06:24:30.342Z,1006.31
2018-03-14T06:25:30.322Z,1006.31
2018-03-14T06:26:30.309Z,1006.31
2018-03-14T06:27:30.284Z,1006.31
2018-03-14T06:28:30.265Z,1006.32
2018-03-14T06:29:30.247Z,1006.35
2018-03-14T06:30:30.217Z,1006.34
2018-03-14T06:31:30.200Z,1006.36
2018-03-14T06:32:30.178Z,1006.37
2018-03-14T06:33:30.153Z,1006.40
2018-03-14T06:34:30.136Z,1006.43
2018-03-14T06:35:30.120Z,1006.46
2018-03-14T06:36:30.091Z,1006.49
2018-03-14T06:37:30.076Z,1006.45
2018-03-14T06:38:30.054Z,1006.48
2018-03-14T06:39:30.037Z,1006.48
2018-03-14T06:40:30.008Z,1006.50
2018-03-14T06:41:29.989Z,1006.47
2018-03-14T06:42:29.973Z,1006.49
2018-03-14T06:43:29.947Z,1006.52
2018-03-14T06:44:29.928Z,1006.46
2018-03-14T06:45:29.906Z,1006.51
2018-03-14T06:46:29.887Z,1006.53
2018-03-14T06:47:29.866Z,1006.55
2018-03-14T06:48:29.841Z,1006.56
2018-03-14T06:49:29.821Z,1006.60
2018-03-14T06:50:29.803Z,1006.61
2018-03-14T06:51:29.786Z,1006.63
2018-03-14T06:52:29.761Z,1006.63
2018-03-14T06:53:29.736Z,1006.66
2018-03-14T06:54:29.719Z,1006.63
2018-03-14T06:55:29.700Z,1006.61
2018-03-14T06:56:29.678Z,1006.60
2018-03-14T06:57:29.658Z,1006.64
2018-03-14T06:58:29.636Z,1006.63
2018-03-14T06:59:29.620Z,1006.64
2018-03-14T07:00:29.598Z,1006.63
2018-03-14T07:01:29.568Z,1006.64
2018-03-14T07:02:29.550Z,1006.67
2018-03-14T07:03:29.530Z,1006.65
2018-03-14T07:04:29.510Z,1006.66
2018-03-14T07:05:29.490Z,1006.67
2018-03-14T07:06:29.467Z,1006.66
2018-03-14T07:07:29.448Z,1006.67
2018-03-14T07:08:29.430Z,1006.68
2018-03-14T07:09:29.406Z,1006.67
2018-03-14T07:10:29.387Z,1006.71
2018-03-14T07:11:29.367Z,1006.72
2018-03-14T07:12:29.341Z,1006.71
2018-03-14T07:13:29.327Z,1006.76
2018-03-14T07:14:29.302Z,1006.77
2018-03-14T07:15:29.282Z,1006.81
2018-03-14T07:16:29.262Z,1006.83
2018-03-14T07:17:29.249Z,1006.86
2018-03-14T07:18:29.217Z,1006.85
2018-03-14T07:19:29.197Z,1006.90
2018-03-14T07:20:29.174Z,1006.86
2018-03-14T07:21:29.156Z,1006.86
2018-03-14T07:22:29.136Z,1006.88
2018-03-14T07:23:29.113Z,1006.91
2018-03-14T07:24:29.093Z,1006.90
2018-03-14T07:25:29.075Z,1006.90
2018-03-14T07:26:29.056Z,1006.90
2018-03-14T07:27:29.031Z,1006.91
2018-03-14T07:28:29.043Z,1006.93
2018-03-14T07:29:28.988Z,1006.93
2018-03-14T07:30:28.966Z,1006.99
2018-03-14T07:31:28.951Z,1006.97
2018-03-14T07:32:28.926Z,1006.95
2018-03-14T07:33:28.907Z,1006.93
2018-03-14T07:34:28.886Z,1006.96
2018-03-14T07:35:28.867Z,1006.99
2018-03-14T07:36:28.845Z,1006.97
2018-03-14T07:37:28.823Z,1006.98
2018-03-14T07:38:28.806Z,1007.00
2018-03-14T07:39:28.779Z,1007.01
2018-03-14T07:40:28.764Z,1007.02
2018-03-14T07:41:28.741Z,1007.02
2018-03-14T07:42:28.729Z,1007.06
2018-03-14T07:43:28.700Z,1007.01
2018-03-14T07:44:28.677Z,1007.05
2018-03-14T07:45:28.655Z,1007.00
2018-03-14T07:46:28.636Z,1006.99
2018-03-14T07:47:28.630Z,1007.03
2018-03-14T07:48:28.599Z,1007.05
2018-03-14T07:49:28.572Z,1006.99
2018-03-14T07:50:28.558Z,1006.97
2018-03-14T07:51:28.538Z,1006.99
2018-03-14T07:52:28.511Z,1007.00
2018-03-14T07:53:28.501Z,1007.01
2018-03-14T07:54:28.471Z,1007.02
2018-03-14T07:55:28.457Z,1007.04
2018-03-14T07:56:28.436Z,1007.03
2018-03-14T07:57:28.410Z,1007.07
2018-03-14T07:58:28.387Z,1007.11
2018-03-14T07:59:28.370Z,1007.08
2018-03-14T08:00:28.349Z,1007.07
2018-03-14T08:01:28.368Z,1007.08
2018-03-14T08:02:28.306Z,1007.11
2018-03-14T08:03:28.290Z,1007.14
2018-03-14T08:04:28.264Z,1007.16
2018-03-14T08:05:28.256Z,1007.14
2018-03-14T08:06:28.226Z,1007.18
2018-03-14T08:07:28.203Z,1007.16
2018-03-14T08:08:28.184Z,1007.18
2018-03-14T08:09:28.160Z,1007.17
2018-03-14T08:10:28.140Z,1007.15
2018-03-14T08:11:28.126Z,1007.18
2018-03-14T08:12:28.097Z,1007.15
2018-03-14T08:13:28.174Z,1007.16
2018-03-14T08:14:28.058Z,1007.11
2018-03-14T08:15:28.038Z,1007.08
2018-03-14T08:16:28.021Z,1007.07
2018-03-14T08:17:27.997Z,1007.04
2018-03-14T08:18:27.977Z,1007.04
2018-03-14T08:19:27.956Z,1007.01
2018-03-14T08:20:27.937Z,1007.09
2018-03-14T08:21:27.912Z,1007.03
2018-03-14T08:22:27.902Z,1007.09
2018-03-14T08:23:27.892Z,1007.05
2018-03-14T08:24:27.851Z,1007.08
2018-03-14T08:25:27.844Z,1007.09
2018-03-14T08:26:27.821Z,1007.08
2018-03-14T08:27:27.792Z,1007.08
2018-03-14T08:28:27.769Z,1007.08
2018-03-14T08:29:27.746Z,1007.05
2018-03-14T08:30:27.729Z,1007.06
2018-03-14T08:31:27.718Z,1007.07
2018-03-14T08:32:27.697Z,1007.07
2018-03-14T08:33:27.669Z,1007.07
2018-03-14T08:34:27.658Z,1007.09
2018-03-14T08:35:27.627Z,1007.09
2018-03-14T08:36:27.605Z,1007.06
2018-03-14T08:37:27.588Z,1007.09
2018-03-14T08:38:27.563Z,1007.05
2018-03-14T08:39:27.541Z,1007.06
2018-03-14T08:40:27.520Z,1007.10
2018-03-14T08:41:27.504Z,1007.12
2018-03-14T08:42:27.477Z,1007.12
2018-03-14T08:43:27.459Z,1007.11
2018-03-14T08:44:27.450Z,1007.12
2018-03-14T08:45:27.419Z,1007.14
2018-03-14T08:46:27.404Z,1007.15
2018-03-14T08:47:27.375Z,1007.15
2018-03-14T08:48:27.359Z,1007.14
2018-03-14T08:49:27.335Z,1007.19
2018-03-14T08:50:27.342Z,1007.21
2018-03-14T08:51:27.292Z,1007.18
2018-03-14T08:52:27.275Z,1007.19
2018-03-14T08:53:27.251Z,1007.18
2018-03-14T08:54:27.234Z,1007.21
2018-03-14T08:55:27.208Z,1007.14
2018-03-14T08:56:27.197Z,1007.14
2018-03-14T08:57:27.167Z,1007.14
2018-03-14T08:58:27.143Z,1007.12
2018-03-14T08:59:27.153Z,1007.13
2018-03-14T09:00:27.107Z,1007.09
2018-03-14T09:01:27.087Z,1007.09
2018-03-14T09:02:27.065Z,1007.11
2018-03-14T09:03:27.046Z,1007.11
2018-03-14T09:04:27.021Z,1007.14
2018-03-14T09:05:27.003Z,1007.18
2018-03-14T09:06:26.986Z,1007.17
2018-03-14T09:07:26.993Z,1007.14
2018-03-14T09:08:26.947Z,1007.16
2018-03-14T09:09:26.923Z,1007.16
2018-03-14T09:10:26.915Z,1007.15
2018-03-14T09:11:26.887Z,1007.15
2018-03-14T09:12:26.860Z,1007.15
2018-03-14T09:13:26.842Z,1007.15
2018-03-14T09:14:26.825Z,1007.14
2018-03-14T09:15:26.798Z,1007.11
2018-03-14T09:16:26.780Z,1007.13
2018-03-14T09:17:26.756Z,1007.10
2018-03-14T09:18:26.738Z,1007.14
2018-03-14T09:19:26.775Z,1007.11
2018-03-14T09:20:26.698Z,1007.15
2018-03-14T09:21:26.677Z,1007.14
2018-03-14T09:22:26.655Z,1007.19
2018-03-14T09:23:26.634Z,1007.15
2018-03-14T09:24:26.614Z,1007.19
2018-03-14T09:25:26.596Z,1007.22
2018-03-14T09:26:26.576Z,1007.18
2018-03-14T09:27:26.558Z,1007.17
2018-03-14T09:28:26.531Z,1007.12
2018-03-14T09:29:26.511Z,1007.16
2018-03-14T09:30:26.495Z,1007.18
2018-03-14T09:31:26.476Z,1007.16
2018-03-14T09:32:26.453Z,1007.20
2018-03-14T09:33:26.433Z,1007.21
2018-03-14T09:34:26.412Z,1007.18
2018-03-14T09:35:26.390Z,1007.17
2018-03-14T09:36:26.378Z,1007.18
2018-03-14T09:37:26.358Z,1007.20
2018-03-14T09:38:26.328Z,1007.20
2018-03-14T09:39:26.310Z,1007.22
2018-03-14T09:40:26.288Z,1007.24
2018-03-14T09:41:26.272Z,1007.21
2018-03-14T09:42:26.246Z,1007.20
2018-03-14T09:43:26.228Z,1007.21
2018-03-14T09:44:26.208Z,1007.19
2018-03-14T09:45:26.208Z,1007.20
2018-03-14T09:46:26.167Z,1007.18
2018-03-14T09:47:26.148Z,1007.20
2018-03-14T09:48:26.124Z,1007.22
2018-03-14T09:49:26.109Z,1007.22
2018-03-14T09:50:26.089Z,1007.25
2018-03-14T09:51:26.088Z,1007.27
2018-03-14T09:52:26.049Z,1007.24
2018-03-14T09:53:26.032Z,1007.22
2018-03-14T09:54:26.005Z,1007.26
2018-03-14T09:55:25.988Z,1007.27
2018-03-14T09:56:25.963Z,1007.22
2018-03-14T09:57:25.949Z,1007.22
2018-03-14T09:58:25.928Z,1007.22
2018-03-14T09:59:25.906Z,1007.23
2018-03-14T10:00:25.883Z,1007.21
2018-03-14T10:01:25.867Z,1007.23
2018-03-14T10:02:25.859Z,1007.23
2018-03-14T10:03:25.825Z,1007.22
2018-03-14T10:04:25.800Z,1007.23
2018-03-14T10:05:25.784Z,1007.25
2018-03-14T10:06:25.760Z,1007.25
2018-03-14T10:07:25.741Z,1007.23
2018-03-14T10:08:25.722Z,1007.26
2018-03-14T10:09:25.699Z,1007.28
2018-03-14T10:10:25.686Z,1007.25
2018-03-14T10:11:25.666Z,1007.27
2018-03-14T10:12:25.649Z,1007.26
2018-03-14T10:13:25.625Z,1007.24
2018-03-14T10:14:25.601Z,1007.24
2018-03-14T10:15:25.586Z,1007.25
2018-03-14T10:16:25.558Z,1007.29
2018-03-14T10:17:25.543Z,1007.22
2018-03-14T10:18:25.523Z,1007.21
2018-03-14T10:19:25.517Z,1007.23
2018-03-14T10:20:25.479Z,1007.25
2018-03-14T10:21:25.466Z,1007.25
2018-03-14T10:22:25.499Z,1007.26
2018-03-14T10:23:25.425Z,1007.24
2018-03-14T10:24:25.413Z,1007.25
2018-03-14T10:25:25.430Z,1007.23
2018-03-14T10:26:25.357Z,1007.21
2018-03-14T10:27:25.339Z,1007.18
2018-03-14T10:28:25.317Z,1007.21
2018-03-14T10:29:25.295Z,1007.22
2018-03-14T10:30:25.278Z,1007.21
2018-03-14T10:31:25.257Z,1007.24
2018-03-14T10:32:25.238Z,1007.22
2018-03-14T10:33:25.219Z,1007.23
2018-03-14T10:34:25.253Z,1007.27
2018-03-14T10:35:25.177Z,1007.27
2018-03-14T10:36:25.161Z,1007.27
2018-03-14T10:37:25.137Z,1007.29
2018-03-14T10:38:25.127Z,1007.30
2018-03-14T10:39:25.098Z,1007.30
2018-03-14T10:40:25.078Z,1007.27
2018-03-14T10:41:25.069Z,1007.28
2018-03-14T10:42:25.044Z,1007.26
2018-03-14T10:43:25.014Z,1007.26
2018-03-14T10:44:24.997Z,1007.27
2018-03-14T10:45:24.990Z,1007.26
2018-03-14T10:46:24.962Z,1007.25
2018-03-14T10:47:24.938Z,1007.25
2018-03-14T10:48:24.916Z,1007.24
2018-03-14T10:49:24.932Z,1007.25
2018-03-14T10:50:24.879Z,1007.26
2018-03-14T10:51:24.858Z,1007.29
2018-03-14T10:52:24.839Z,1007.32
2018-03-14T10:53:24.816Z,1007.28
2018-03-14T10:54:24.793Z,1007.31
2018-03-14T10:55:24.777Z,1007.31
2018-03-14T10:56:24.758Z,1007.29
2018-03-14T10:57:24.735Z,1007.29
2018-03-14T10:58:24.717Z,1007.27
2018-03-14T10:59:24.698Z,1007.29
2018-03-14T11:00:24.678Z,1007.26
2018-03-14T11:01:24.654Z,1007.29
2018-03-14T11:02:24.647Z,1007.26
2018-03-14T11:03:24.619Z,1007.25
2018-03-14T11:04:24.599Z,1007.23
2018-03-14T11:05:24.579Z,1007.25
2018-03-14T11:06:24.567Z,1007.22
2018-03-14T11:07:24.536Z,1007.21
2018-03-14T11:08:24.518Z,1007.21
2018-03-14T11:09:24.495Z,1007.20
2018-03-14T11:10:24.477Z,1007.22
2018-03-14T11:11:24.458Z,1007.23
2018-03-14T11:12:24.442Z,1007.25
2018-03-14T11:13:24.418Z,1007.22
2018-03-14T11:14:24.398Z,1007.25
2018-03-14T11:15:24.373Z,1007.24
2018-03-14T11:16:24.358Z,1007.26
2018-03-14T11:17:24.338Z,1007.26
2018-03-14T11:18:24.317Z,1007.23
2018-03-14T11:19:24.297Z,1007.21
2018-03-14T11:20:24.304Z,1007.19
2018-03-14T11:21:24.261Z,1007.19
2018-03-14T11:22:24.237Z,1007.18
2018-03-14T11:23:24.222Z,1007.15
2018-03-14T11:24:24.204Z,1007.17
2018-03-14T11:25:24.177Z,1007.12
2018-03-14T11:26:24.160Z,1007.12
2018-03-14T11:27:24.138Z,1007.10
2018-03-14T11:28:24.120Z,1007.11
2018-03-14T11:29:24.098Z,1007.13
2018-03-14T11:30:24.083Z,1007.13
2018-03-14T11:31:24.059Z,1007.13
2018-03-14T11:32:24.038Z,1007.11
2018-03-14T11:33:24.023Z,1007.11
2018-03-14T11:34:24.001Z,1007.12
2018-03-14T11:35:23.985Z,1007.07
2018-03-14T11:36:23.958Z,1007.10
2018-03-14T11:37:23.945Z,1007.09
2018-03-14T11:38:23.920Z,1007.09
2018-03-14T11:39:23.904Z,1007.13
2018-03-14T11:40:23.881Z,1007.13
2018-03-14T11:41:23.871Z,1007.15
2018-03-14T11:42:23.890Z,1007.13
2018-03-14T11:43:23.830Z,1007.17
2018-03-14T11:44:23.809Z,1007.12
2018-03-14T11:45:23.786Z,1007.12
2018-03-14T11:46:23.762Z,1007.12
2018-03-14T11:47:23.748Z,1007.11
2018-03-14T11:48:23.733Z,1007.06
2018-03-14T11:49:23.708Z,1007.06
2018-03-14T11:50:23.685Z,1007.10
2018-03-14T11:51:23.664Z,1007.09
2018-03-14T11:52:23.645Z,1007.08
2018-03-14T11:53:23.629Z,1007.08
2018-03-14T11:54:23.606Z,1007.11
2018-03-14T11:55:23.590Z,1007.16
2018-03-14T11:56:23.575Z,1007.13
2018-03-14T11:57:23.549Z,1007.08
2018-03-14T11:58:23.536Z,1007.10
2018-03-14T11:59:23.508Z,1007.11
2018-03-14T12:00:23.486Z,1007.09
2018-03-14T12:01:23.465Z,1007.05
2018-03-14T12:02:23.458Z,1007.04
2018-03-14T12:03:23.431Z,1007.06
2018-03-14T12:04:23.408Z,1006.98
2018-03-14T12:05:23.389Z,1006.94